Terminal Aerodrome Forecast
Issued by NWS Sioux Falls, SD

Home | Current Version | Previous Version | Text Only | Print | Product List | Glossary Off
Versions: 1 2 3 4 5 6 7 8 9 10 11 12 13

000
FTUS43 KFSD 201700
TAFHON
TAF
KHON 201738Z 2018/2118 14009KT P6SM FEW150
     FM210100 VRB03KT P6SM BKN070
     FM210500 34010KT P6SM SCT070
     FM211400 33015G24KT P6SM SKC=

USA.gov is the U.S. government's official web portal to all federal, state and local government web resources and services.